createdAt,value
2017-06-19T00:04:49.550Z,12.77
2017-06-19T00:07:18.176Z,11.65
2017-06-19T00:09:45.008Z,11.07
2017-06-19T00:12:11.816Z,15.73
2017-06-19T00:14:38.611Z,11.25
2017-06-19T00:17:07.907Z,11.07
2017-06-19T00:19:34.713Z,12.18
2017-06-19T00:22:02.703Z,10.85
2017-06-19T00:24:31.249Z,11.97
2017-06-19T00:26:58.589Z,13.30
2017-06-19T00:29:25.412Z,12.38
2017-06-19T00:31:52.855Z,11.65
2017-06-19T00:34:21.094Z,11.92
2017-06-19T00:36:48.435Z,13.15
2017-06-19T00:39:15.260Z,13.10
2017-06-19T00:41:42.055Z,11.80
2017-06-19T00:44:10.764Z,12.87
2017-06-19T00:46:52.709Z,18.28
2017-06-19T00:49:20.303Z,12.33
2017-06-19T00:51:47.115Z,12.53
2017-06-19T00:54:13.938Z,16.50
2017-06-19T00:56:40.736Z,14.80
2017-06-19T00:59:11.104Z,22.42
2017-06-19T01:01:40.689Z,14.68
2017-06-19T01:04:08.311Z,13.30
2017-06-19T01:11:42.663Z,14.35
2017-06-19T01:14:11.205Z,16.03
2017-06-19T01:16:38.932Z,15.57
2017-06-19T01:19:06.613Z,16.45
2017-06-19T01:27:09.339Z,19.83
2017-06-19T01:35:12.863Z,19.83
2017-06-19T01:40:25.488Z,17.23
2017-06-19T01:42:52.927Z,16.95
2017-06-19T01:45:23.417Z,17.88
2017-06-19T01:47:53.693Z,18.02
2017-06-19T02:01:25.337Z,17.18
2017-06-19T02:03:53.857Z,17.15
2017-06-19T02:09:06.249Z,16.60
2017-06-19T02:11:33.655Z,17.17
2017-06-19T02:14:02.131Z,16.62
2017-06-19T02:16:28.959Z,17.02
2017-06-19T02:18:56.576Z,18.80
2017-06-19T02:21:25.204Z,16.83
2017-06-19T02:23:52.040Z,19.23
2017-06-19T02:26:22.714Z,18.23
2017-06-19T02:28:51.460Z,17.82
2017-06-19T02:31:18.288Z,20.28
2017-06-19T02:33:45.904Z,18.68
2017-06-19T02:36:13.651Z,17.62
2017-06-19T02:38:40.733Z,17.63
2017-06-19T02:43:52.779Z,19.13
2017-06-19T02:46:24.052Z,19.33
2017-06-19T02:48:52.540Z,41.07
2017-06-19T02:51:19.984Z,19.92
2017-06-19T02:53:48.693Z,18.97
2017-06-19T02:56:15.499Z,20.88
2017-06-19T02:58:42.324Z,20.68
2017-06-19T03:01:12.069Z,21.23
2017-06-19T03:03:40.199Z,18.40
2017-06-19T03:08:42.987Z,17.45
2017-06-19T03:11:10.140Z,19.73
2017-06-19T03:13:37.588Z,28.97
2017-06-19T03:18:39.481Z,18.30
2017-06-19T03:21:09.196Z,17.60
2017-06-19T03:23:36.495Z,18.85
2017-06-19T03:26:03.316Z,19.80
2017-06-19T03:28:32.457Z,20.02
2017-06-19T03:44:35.181Z,21.00
2017-06-19T03:49:41.605Z,18.37
2017-06-19T03:52:10.112Z,17.82
2017-06-19T03:54:36.925Z,19.15
2017-06-19T03:57:03.751Z,19.53
2017-06-19T03:59:32.849Z,20.68
2017-06-19T04:02:01.395Z,19.27
2017-06-19T04:04:31.054Z,19.02
2017-06-19T04:09:32.727Z,19.30
2017-06-19T04:20:18.857Z,19.35
2017-06-19T04:22:51.240Z,17.55
2017-06-19T04:35:53.808Z,14.28
2017-06-19T04:52:01.716Z,10.54
2017-06-19T04:54:28.505Z,12.50
2017-06-19T04:56:57.040Z,12.12
2017-06-19T05:13:00.319Z,10.16
2017-06-19T05:40:20.653Z,13.68
2017-06-19T05:45:40.040Z,11.22
2017-06-19T05:48:08.517Z,10.88
2017-06-19T05:50:35.340Z,11.86
2017-06-19T05:53:03.845Z,10.86
2017-06-19T05:58:17.806Z,10.82
2017-06-19T06:03:30.377Z,11.44
2017-06-19T06:08:43.352Z,10.40
2017-06-19T06:11:10.159Z,9.84
2017-06-19T06:13:38.909Z,10.54
2017-06-19T06:16:05.727Z,9.76
2017-06-19T06:21:19.852Z,9.62
2017-06-19T06:23:46.990Z,9.08
2017-06-19T06:26:15.705Z,8.42
2017-06-19T06:28:44.251Z,8.82
2017-06-19T06:33:45.458Z,8.40
2017-06-19T06:36:14.068Z,7.94
2017-06-19T06:41:13.597Z,8.90
2017-06-19T06:46:14.096Z,7.82
2017-06-19T06:48:44.742Z,7.50
2017-06-19T06:53:43.575Z,8.34
2017-06-19T06:56:10.824Z,7.26
2017-06-19T06:58:41.269Z,7.04
2017-06-19T07:01:08.081Z,5.76
2017-06-19T07:03:38.272Z,6.06
2017-06-19T07:08:36.081Z,5.08
2017-06-19T07:11:04.633Z,5.68
2017-06-19T07:21:04.823Z,4.64
2017-06-19T07:23:34.244Z,5.14
2017-06-19T07:26:02.751Z,5.10
2017-06-19T07:28:31.551Z,4.82
2017-06-19T07:30:58.342Z,4.68
2017-06-19T07:38:51.636Z,4.56
2017-06-19T07:46:35.229Z,4.44
2017-06-19T07:49:03.689Z,6.58
2017-06-19T07:51:31.613Z,5.68
2017-06-19T07:53:58.405Z,5.78
2017-06-19T07:59:11.289Z,5.64
2017-06-19T08:01:41.640Z,5.10
2017-06-19T08:04:08.734Z,5.48
2017-06-19T08:06:38.016Z,4.48
2017-06-19T08:09:04.806Z,4.32
2017-06-19T08:11:33.414Z,5.12
2017-06-19T08:14:02.214Z,4.44
2017-06-19T08:24:22.750Z,5.08
2017-06-19T08:26:49.911Z,3.54
2017-06-19T08:31:50.844Z,4.16
2017-06-19T08:36:50.702Z,2.66
2017-06-19T08:39:17.525Z,3.58
2017-06-19T08:41:48.256Z,3.42
2017-06-19T08:46:50.396Z,2.96
2017-06-19T08:49:18.906Z,3.10
2017-06-19T08:51:46.540Z,3.10
2017-06-19T08:54:18.184Z,3.18
2017-06-19T08:56:44.976Z,2.80
2017-06-19T09:04:23.510Z,2.90
2017-06-19T09:09:24.048Z,2.92
2017-06-19T09:11:54.916Z,3.14
2017-06-19T09:14:24.255Z,3.80
2017-06-19T09:16:51.078Z,4.44
2017-06-19T09:19:19.398Z,3.56
2017-06-19T09:21:48.478Z,2.74
2017-06-19T09:24:16.526Z,2.70
2017-06-19T09:29:16.586Z,3.70
2017-06-19T09:31:45.332Z,3.42
2017-06-19T09:34:12.129Z,2.76
2017-06-19T09:36:46.244Z,3.02
2017-06-19T09:39:19.940Z,3.40
2017-06-19T09:41:52.677Z,3.50
2017-06-19T09:47:00.423Z,2.90
2017-06-19T09:49:27.240Z,3.36
2017-06-19T09:54:29.069Z,2.98
2017-06-19T10:02:04.012Z,3.40
2017-06-19T10:07:09.505Z,2.56
2017-06-19T10:09:39.253Z,3.06
2017-06-19T10:14:37.406Z,3.50
2017-06-19T10:17:11.847Z,2.62
2017-06-19T10:19:44.389Z,3.30
2017-06-19T10:27:28.341Z,2.66
2017-06-19T10:32:29.180Z,2.88
2017-06-19T10:37:38.976Z,2.76
2017-06-19T10:40:06.466Z,3.92
2017-06-19T10:42:40.934Z,3.00
2017-06-19T10:45:12.103Z,2.82
2017-06-19T10:50:29.991Z,2.92
2017-06-19T11:03:29.264Z,3.64
2017-06-19T11:06:05.705Z,3.24
2017-06-19T11:08:35.381Z,3.04
2017-06-19T11:11:06.507Z,3.50
2017-06-19T11:16:11.389Z,3.32
2017-06-19T11:33:59.600Z,3.48
2017-06-19T11:36:26.414Z,3.36
2017-06-19T11:41:26.455Z,3.62
2017-06-19T11:43:56.982Z,3.02
2017-06-19T11:46:27.453Z,3.98
2017-06-19T11:54:02.354Z,4.16
2017-06-19T11:56:29.153Z,3.40
2017-06-19T12:01:27.363Z,3.88
2017-06-19T12:03:57.028Z,3.80
2017-06-19T12:06:25.546Z,4.30
2017-06-19T12:13:59.224Z,4.34
2017-06-19T12:16:26.428Z,4.38
2017-06-19T12:18:54.889Z,4.46
2017-06-19T12:21:23.730Z,4.80
2017-06-19T12:34:03.685Z,56.58
2017-06-19T12:39:03.473Z,3.92
2017-06-19T12:41:30.936Z,4.56
2017-06-19T12:43:59.412Z,4.62
2017-06-19T12:49:17.432Z,4.24
2017-06-19T12:54:15.543Z,4.12
2017-06-19T12:56:44.008Z,4.88
2017-06-19T12:59:11.132Z,4.46
2017-06-19T13:01:40.212Z,4.18
2017-06-19T13:04:06.995Z,4.42
2017-06-19T13:06:33.788Z,4.60
2017-06-19T13:09:00.873Z,4.80
2017-06-19T13:11:29.439Z,4.14
2017-06-19T13:16:29.246Z,3.94
2017-06-19T13:18:57.713Z,4.50
2017-06-19T13:21:26.906Z,4.50
2017-06-19T13:23:54.345Z,4.16
2017-06-19T13:26:23.231Z,5.32
2017-06-19T13:28:53.099Z,4.98
2017-06-19T13:39:37.980Z,4.58
2017-06-19T13:42:06.433Z,4.14
2017-06-19T13:52:38.756Z,3.80
2017-06-19T14:00:18.886Z,5.02
2017-06-19T14:02:46.025Z,4.32
2017-06-19T14:05:14.493Z,4.68
2017-06-19T14:07:41.854Z,5.64
2017-06-19T14:10:08.650Z,3.88
2017-06-19T14:12:39.979Z,4.64
2017-06-19T14:15:10.701Z,5.00
2017-06-19T14:20:24.979Z,3.88
2017-06-19T14:31:13.857Z,4.94
2017-06-19T14:36:12.116Z,4.70
2017-06-19T14:41:13.225Z,5.58
2017-06-19T14:43:41.710Z,4.60
2017-06-19T14:46:11.198Z,4.66
2017-06-19T14:51:11.370Z,4.36
2017-06-19T14:56:11.496Z,4.54
2017-06-19T14:58:39.969Z,4.82
2017-06-19T15:01:06.764Z,4.54
2017-06-19T15:03:35.582Z,4.64
2017-06-19T15:11:04.937Z,4.62
2017-06-19T15:16:06.673Z,4.44
2017-06-19T15:18:33.831Z,4.26
2017-06-19T15:21:09.012Z,4.60
2017-06-19T15:23:43.267Z,4.62
2017-06-19T15:26:10.373Z,5.78
2017-06-19T15:28:39.690Z,4.52
2017-06-19T15:31:08.397Z,3.62
2017-06-19T15:33:37.184Z,4.08
2017-06-19T15:38:39.985Z,4.62
2017-06-19T15:41:08.522Z,4.74
2017-06-19T15:46:06.693Z,4.14
2017-06-19T15:51:06.338Z,4.80
2017-06-19T15:53:35.917Z,4.62
2017-06-19T15:56:04.537Z,3.64
2017-06-19T15:58:32.264Z,5.02
2017-06-19T16:03:32.028Z,4.40
2017-06-19T16:11:02.833Z,4.16
2017-06-19T16:16:02.565Z,8.82
2017-06-19T16:18:31.041Z,4.88
2017-06-19T16:23:30.680Z,4.60
2017-06-19T16:26:01.584Z,4.40
2017-06-19T16:28:30.627Z,4.82
2017-06-19T16:33:32.451Z,4.68
2017-06-19T16:36:01.206Z,5.78
2017-06-19T16:41:00.672Z,4.46
2017-06-19T16:43:31.586Z,4.62
2017-06-19T16:53:35.856Z,4.90
2017-06-19T16:56:06.387Z,4.54
2017-06-19T17:01:04.892Z,4.28
2017-06-19T17:03:33.360Z,4.36
2017-06-19T17:06:02.461Z,4.78
2017-06-19T17:08:31.241Z,4.78
2017-06-19T17:16:07.636Z,6.32
2017-06-19T17:26:10.508Z,4.90
2017-06-19T17:28:45.697Z,4.60
2017-06-19T17:31:16.781Z,4.94
2017-06-19T17:33:52.935Z,5.18
2017-06-19T17:41:45.558Z,4.94
2017-06-19T17:44:12.628Z,5.12
2017-06-19T17:54:23.530Z,5.12
2017-06-19T17:59:21.932Z,5.28
2017-06-19T18:01:53.509Z,4.30
2017-06-19T18:04:22.066Z,5.86
2017-06-19T18:16:59.042Z,5.42
2017-06-19T18:22:02.389Z,4.52
2017-06-19T18:37:27.528Z,6.70
2017-06-19T18:39:55.651Z,10.38
2017-06-19T18:45:02.262Z,5.86
2017-06-19T18:47:30.744Z,7.50
2017-06-19T18:49:59.256Z,5.98
2017-06-19T18:52:30.816Z,5.96
2017-06-19T18:54:59.613Z,6.26
2017-06-19T18:57:26.701Z,6.34
2017-06-19T19:02:35.728Z,5.90
2017-06-19T19:05:02.515Z,5.78
2017-06-19T19:12:32.520Z,6.78
2017-06-19T19:15:02.977Z,7.40
2017-06-19T19:17:29.797Z,6.54
2017-06-19T19:19:57.276Z,7.54
2017-06-19T19:22:24.504Z,7.42
2017-06-19T19:24:51.321Z,7.82
2017-06-19T19:27:19.645Z,7.18
2017-06-19T19:29:47.281Z,7.82
2017-06-19T19:32:14.907Z,6.34
2017-06-19T19:34:41.700Z,7.94
2017-06-19T19:39:40.294Z,7.62
2017-06-19T19:42:07.475Z,7.72
2017-06-19T19:44:34.800Z,7.54
2017-06-19T19:47:02.702Z,6.84
2017-06-19T19:49:29.797Z,6.12
2017-06-19T19:51:57.856Z,7.36
2017-06-19T19:54:26.156Z,8.64
2017-06-19T19:59:31.309Z,8.48
2017-06-19T20:01:58.101Z,9.04
2017-06-19T20:04:24.865Z,8.78
2017-06-19T20:06:51.956Z,9.34
2017-06-19T20:09:18.709Z,10.40
2017-06-19T20:11:48.551Z,10.32
2017-06-19T20:14:17.243Z,11.08
2017-06-19T20:16:43.985Z,9.66
2017-06-19T20:19:11.921Z,9.24
2017-06-19T20:21:38.664Z,8.28
2017-06-19T20:24:05.835Z,9.10
2017-06-19T20:26:32.632Z,9.80
2017-06-19T20:29:00.095Z,8.84
2017-06-19T20:31:27.798Z,8.48
2017-06-19T20:33:54.572Z,8.30
2017-06-19T20:36:21.377Z,8.98
2017-06-19T20:38:48.185Z,10.22
2017-06-19T20:41:15.363Z,11.26
2017-06-19T20:43:42.112Z,10.30
2017-06-19T20:46:10.618Z,9.84
2017-06-19T20:48:37.389Z,10.14
2017-06-19T20:51:04.164Z,8.66
2017-06-19T20:53:31.333Z,9.34
2017-06-19T20:55:58.986Z,9.96
2017-06-19T20:58:25.727Z,9.88
2017-06-19T21:00:53.110Z,9.80
2017-06-19T21:03:19.860Z,10.28
2017-06-19T21:05:46.681Z,9.52
2017-06-19T21:08:14.385Z,9.30
2017-06-19T21:10:41.168Z,10.54
2017-06-19T21:13:09.483Z,10.70
2017-06-19T21:15:36.531Z,9.80
2017-06-19T21:18:03.286Z,10.54
2017-06-19T21:20:31.390Z,9.12
2017-06-19T21:22:58.826Z,11.68
2017-06-19T21:25:25.825Z,10.80
2017-06-19T21:27:52.596Z,11.06
2017-06-19T21:30:19.361Z,11.60
2017-06-19T21:32:46.136Z,10.72
2017-06-19T21:35:13.509Z,10.54
2017-06-19T21:37:42.002Z,10.98
2017-06-19T21:40:08.766Z,11.28
2017-06-19T21:42:36.421Z,10.12
2017-06-19T21:45:03.960Z,11.76
2017-06-19T21:47:30.724Z,10.78
2017-06-19T21:49:58.293Z,10.82
2017-06-19T21:52:25.415Z,10.78
2017-06-19T21:54:53.273Z,13.32
2017-06-19T21:57:20.793Z,12.60
2017-06-19T21:59:47.969Z,12.66
2017-06-19T22:02:15.932Z,12.36
2017-06-19T22:04:43.073Z,14.96
2017-06-19T22:07:20.160Z,13.54
2017-06-19T22:09:47.941Z,13.08
2017-06-19T22:12:16.231Z,12.98
2017-06-19T22:17:16.526Z,11.56
2017-06-19T22:19:44.729Z,11.14
2017-06-19T22:22:29.647Z,14.38
2017-06-19T22:25:05.627Z,13.38
2017-06-19T22:27:32.458Z,12.26
2017-06-19T22:29:59.548Z,12.66
2017-06-19T22:32:27.132Z,15.22
2017-06-19T22:35:00.519Z,14.80
2017-06-19T22:39:59.624Z,16.30
2017-06-19T22:42:26.428Z,12.34
2017-06-19T22:47:31.652Z,13.18
2017-06-19T22:50:03.215Z,13.30
2017-06-19T22:57:34.066Z,13.80
2017-06-19T23:00:00.930Z,12.60
2017-06-19T23:02:30.408Z,11.84
2017-06-19T23:04:58.196Z,12.30
2017-06-19T23:09:59.666Z,12.96
2017-06-19T23:12:27.297Z,12.78
2017-06-19T23:14:54.945Z,14.32
2017-06-19T23:17:23.453Z,13.76
2017-06-19T23:19:51.159Z,13.50
2017-06-19T23:22:18.576Z,13.30
2017-06-19T23:24:45.365Z,14.46
2017-06-19T23:27:14.010Z,15.34
2017-06-19T23:29:40.811Z,13.60
2017-06-19T23:32:07.605Z,13.02
2017-06-19T23:34:35.105Z,14.42
2017-06-19T23:37:02.157Z,14.45
2017-06-19T23:42:12.024Z,11.34
2017-06-19T23:44:38.840Z,13.32
2017-06-19T23:47:05.660Z,13.02
2017-06-19T23:49:33.097Z,13.08
2017-06-19T23:52:01.587Z,12.88
2017-06-19T23:54:30.327Z,13.68
2017-06-19T23:56:57.435Z,15.84
2017-06-19T23:59:25.196Z,14.54
